createdAt,value
2023-05-01T00:00:02.950Z,376.00
2023-05-01T00:01:01.675Z,374.00
2023-05-01T00:02:01.688Z,373.00
2023-05-01T00:03:01.801Z,374.00
2023-05-01T00:04:01.963Z,374.00
2023-05-01T00:05:01.981Z,372.00
2023-05-01T00:06:01.851Z,370.00
2023-05-01T00:07:01.813Z,369.00
2023-05-01T00:08:01.820Z,371.00
2023-05-01T00:09:01.831Z,371.00
2023-05-01T00:10:01.831Z,372.00
2023-05-01T00:11:01.845Z,372.00
2023-05-01T00:12:01.849Z,370.00
2023-05-01T00:13:01.865Z,369.00
2023-05-01T00:14:01.873Z,367.00
2023-05-01T00:15:01.890Z,367.00
2023-05-01T00:16:01.906Z,369.00
2023-05-01T00:17:01.909Z,369.00
2023-05-01T00:18:01.967Z,370.00
2023-05-01T00:19:01.950Z,372.00
2023-05-01T00:20:01.974Z,375.00
2023-05-01T00:21:01.975Z,376.00
2023-05-01T00:22:01.964Z,375.00
2023-05-01T00:23:01.995Z,373.00
2023-05-01T00:24:02.032Z,372.00
2023-05-01T00:25:02.050Z,374.00
2023-05-01T00:26:02.083Z,372.00
2023-05-01T00:27:02.107Z,372.00
2023-05-01T00:28:02.128Z,372.00
2023-05-01T00:29:02.123Z,374.00
2023-05-01T00:30:02.145Z,374.00
2023-05-01T00:31:02.190Z,373.00
2023-05-01T00:32:02.233Z,374.00
2023-05-01T00:33:02.298Z,373.00
2023-05-01T00:34:02.240Z,375.00
2023-05-01T00:35:02.268Z,376.00
2023-05-01T00:36:02.283Z,378.00
2023-05-01T00:37:02.323Z,378.00
2023-05-01T00:38:02.330Z,379.00
2023-05-01T00:39:02.347Z,378.00
2023-05-01T00:40:02.383Z,379.00
2023-05-01T00:41:02.397Z,376.00
2023-05-01T00:42:02.412Z,374.00
2023-05-01T00:43:02.420Z,374.00
2023-05-01T00:44:02.469Z,372.00
2023-05-01T00:45:02.488Z,370.00
2023-05-01T00:46:02.530Z,372.00
2023-05-01T00:47:02.496Z,373.00
2023-05-01T00:48:02.547Z,375.00
2023-05-01T00:49:02.570Z,377.00
2023-05-01T00:50:02.573Z,377.00
2023-05-01T00:51:02.609Z,379.00
2023-05-01T00:52:02.613Z,381.00
2023-05-01T00:53:02.628Z,380.00
2023-05-01T00:54:02.664Z,381.00
2023-05-01T00:55:02.642Z,380.00
2023-05-01T00:56:02.646Z,381.00
2023-05-01T00:57:02.668Z,379.00
2023-05-01T00:58:02.668Z,379.00
2023-05-01T00:59:02.711Z,379.00
2023-05-01T01:00:02.729Z,379.00
2023-05-01T01:01:02.774Z,379.00
2023-05-01T01:02:02.749Z,380.00
2023-05-01T01:03:02.855Z,381.00
2023-05-01T01:04:02.791Z,380.00
2023-05-01T01:05:02.801Z,379.00
2023-05-01T01:06:02.859Z,379.00
2023-05-01T01:07:02.805Z,378.00
2023-05-01T01:08:02.831Z,377.00
2023-05-01T01:09:02.871Z,378.00
2023-05-01T01:10:02.924Z,378.00
2023-05-01T01:11:02.942Z,380.00
2023-05-01T01:12:02.969Z,379.00
2023-05-01T01:13:03.024Z,378.00
2023-05-01T01:14:03.040Z,377.00
2023-05-01T01:15:03.062Z,377.00
2023-05-01T01:16:03.078Z,377.00
2023-05-01T01:17:03.139Z,377.00
2023-05-01T01:18:03.163Z,378.00
2023-05-01T01:19:03.154Z,379.00
2023-05-01T01:20:03.167Z,378.00
2023-05-01T01:21:03.203Z,375.00
2023-05-01T01:22:03.221Z,373.00
2023-05-01T01:23:03.252Z,372.00
2023-05-01T01:24:03.300Z,374.00
2023-05-01T01:25:03.344Z,375.00
2023-05-01T01:26:03.396Z,376.00
2023-05-01T01:27:03.418Z,377.00
2023-05-01T01:28:03.447Z,377.00
2023-05-01T01:29:03.474Z,378.00
2023-05-01T01:30:03.515Z,377.00
2023-05-01T01:31:03.592Z,377.00
2023-05-01T01:32:03.586Z,377.00
2023-05-01T01:33:03.658Z,379.00
2023-05-01T01:34:03.608Z,378.00
2023-05-01T01:35:03.615Z,379.00
2023-05-01T01:36:03.675Z,380.00
2023-05-01T01:37:03.669Z,381.00
2023-05-01T01:38:03.713Z,380.00
2023-05-01T01:39:03.766Z,378.00
2023-05-01T01:40:03.799Z,380.00
2023-05-01T01:41:03.864Z,381.00
2023-05-01T01:42:03.889Z,380.00
2023-05-01T01:43:03.928Z,381.00
2023-05-01T01:44:03.940Z,381.00
2023-05-01T01:45:03.985Z,381.00
2023-05-01T01:46:04.063Z,382.00
2023-05-01T01:47:04.055Z,380.00
2023-05-01T01:48:04.124Z,380.00
2023-05-01T01:49:04.119Z,381.00
2023-05-01T01:50:04.151Z,383.00
2023-05-01T01:51:04.204Z,385.00
2023-05-01T01:52:04.203Z,384.00
2023-05-01T01:53:04.240Z,384.00
2023-05-01T01:54:04.299Z,382.00
2023-05-01T01:55:04.331Z,381.00
2023-05-01T01:56:04.365Z,380.00
2023-05-01T01:57:04.394Z,380.00
2023-05-01T01:58:04.426Z,381.00
2023-05-01T01:59:04.461Z,381.00
2023-05-01T02:00:04.459Z,382.00
2023-05-01T02:01:04.473Z,384.00
2023-05-01T02:02:04.538Z,385.00
2023-05-01T02:03:04.631Z,385.00
2023-05-01T02:04:04.600Z,384.00
2023-05-01T02:05:04.544Z,382.00
2023-05-01T02:06:04.644Z,381.00
2023-05-01T02:07:04.577Z,380.00
2023-05-01T02:08:04.607Z,381.00
2023-05-01T02:09:04.599Z,380.00
2023-05-01T02:10:04.611Z,380.00
2023-05-01T02:11:04.642Z,380.00
2023-05-01T02:12:04.643Z,378.00
2023-05-01T02:13:04.668Z,379.00
2023-05-01T02:14:04.680Z,381.00
2023-05-01T02:15:04.697Z,381.00
2023-05-01T02:16:04.751Z,382.00
2023-05-01T02:17:04.742Z,383.00
2023-05-01T02:18:04.803Z,382.00
2023-05-01T02:19:04.779Z,384.00
2023-05-01T02:20:04.770Z,385.00
2023-05-01T02:21:04.794Z,386.00
2023-05-01T02:22:04.839Z,387.00
2023-05-01T02:23:04.861Z,388.00
2023-05-01T02:24:04.873Z,388.00
2023-05-01T02:25:04.913Z,390.00
2023-05-01T02:26:04.940Z,390.00
2023-05-01T02:27:04.953Z,388.00
2023-05-01T02:28:04.960Z,388.00
2023-05-01T02:29:05.004Z,386.00
2023-05-01T02:30:05.002Z,387.00
2023-05-01T02:31:05.057Z,388.00
2023-05-01T02:32:05.078Z,390.00
2023-05-01T02:33:05.039Z,389.00
2023-05-01T02:34:05.040Z,387.00
2023-05-01T02:35:05.033Z,385.00
2023-05-01T02:36:05.071Z,386.00
2023-05-01T02:37:05.051Z,385.00
2023-05-01T02:38:05.048Z,385.00
2023-05-01T02:39:05.083Z,385.00
2023-05-01T02:40:05.129Z,385.00
2023-05-01T02:41:05.129Z,384.00
2023-05-01T02:42:05.172Z,386.00
2023-05-01T02:43:05.190Z,385.00
2023-05-01T02:44:05.213Z,386.00
2023-05-01T02:45:05.245Z,387.00
2023-05-01T02:46:05.350Z,384.00
2023-05-01T02:47:05.329Z,384.00
2023-05-01T02:48:05.474Z,385.00
2023-05-01T02:49:05.369Z,386.00
2023-05-01T02:50:05.387Z,387.00
2023-05-01T02:51:05.404Z,387.00
2023-05-01T02:52:05.443Z,387.00
2023-05-01T02:53:05.478Z,384.00
2023-05-01T02:54:05.461Z,383.00
2023-05-01T02:55:05.505Z,385.00
2023-05-01T02:56:05.512Z,385.00
2023-05-01T02:57:05.522Z,385.00
2023-05-01T02:58:05.550Z,388.00
2023-05-01T02:59:05.562Z,388.00
2023-05-01T03:00:05.576Z,386.00
2023-05-01T03:01:05.650Z,387.00
2023-05-01T03:02:05.606Z,386.00
2023-05-01T03:03:05.672Z,386.00
2023-05-01T03:04:05.697Z,388.00
2023-05-01T03:05:05.675Z,389.00
2023-05-01T03:06:05.744Z,388.00
2023-05-01T03:07:05.719Z,386.00
2023-05-01T03:08:05.708Z,385.00
2023-05-01T03:09:05.742Z,383.00
2023-05-01T03:10:05.757Z,384.00
2023-05-01T03:11:05.776Z,382.00
2023-05-01T03:12:05.792Z,384.00
2023-05-01T03:13:05.850Z,385.00
2023-05-01T03:14:05.864Z,384.00
2023-05-01T03:15:05.872Z,386.00
2023-05-01T03:16:05.948Z,384.00
2023-05-01T03:17:05.915Z,383.00
2023-05-01T03:18:05.985Z,384.00
2023-05-01T03:19:05.931Z,385.00
2023-05-01T03:20:05.965Z,384.00
2023-05-01T03:21:05.988Z,385.00
2023-05-01T03:22:06.009Z,385.00
2023-05-01T03:23:06.039Z,384.00
2023-05-01T03:24:06.036Z,385.00
2023-05-01T03:25:06.061Z,387.00
2023-05-01T03:26:06.089Z,387.00
2023-05-01T03:27:06.110Z,388.00
2023-05-01T03:28:06.126Z,388.00
2023-05-01T03:29:06.165Z,388.00
2023-05-01T03:30:06.178Z,391.00
2023-05-01T03:31:06.214Z,390.00
2023-05-01T03:32:06.282Z,390.00
2023-05-01T03:33:06.251Z,391.00
2023-05-01T03:34:06.248Z,389.00
2023-05-01T03:35:06.316Z,391.00
2023-05-01T03:36:06.267Z,390.00
2023-05-01T03:37:06.282Z,389.00
2023-05-01T03:38:06.331Z,386.00
2023-05-01T03:39:06.352Z,384.00
2023-05-01T03:40:06.361Z,382.00
2023-05-01T03:41:06.375Z,382.00
2023-05-01T03:42:06.436Z,383.00
2023-05-01T03:43:06.407Z,382.00
2023-05-01T03:44:06.445Z,382.00
2023-05-01T03:45:06.466Z,382.00
2023-05-01T03:46:06.510Z,382.00
2023-05-01T03:47:06.518Z,382.00
2023-05-01T03:48:06.601Z,383.00
2023-05-01T03:49:06.541Z,383.00
2023-05-01T03:50:06.598Z,383.00
2023-05-01T03:51:06.575Z,384.00
2023-05-01T03:52:06.580Z,386.00
2023-05-01T03:53:06.607Z,387.00
2023-05-01T03:54:06.610Z,387.00
2023-05-01T03:55:06.658Z,387.00
2023-05-01T03:56:06.677Z,388.00
2023-05-01T03:57:06.690Z,386.00
2023-05-01T03:58:06.694Z,388.00
2023-05-01T03:59:06.714Z,389.00
2023-05-01T04:00:06.759Z,389.00
2023-05-01T04:01:06.813Z,389.00
2023-05-01T04:02:06.838Z,389.00
2023-05-01T04:03:06.947Z,389.00
2023-05-01T04:04:06.913Z,389.00
2023-05-01T04:05:06.893Z,387.00
2023-05-01T04:06:07.032Z,388.00
2023-05-01T04:07:06.931Z,389.00
2023-05-01T04:08:06.941Z,391.00
2023-05-01T04:09:06.985Z,392.00
2023-05-01T04:10:06.994Z,391.00
2023-05-01T04:11:07.036Z,390.00
2023-05-01T04:12:07.043Z,391.00
2023-05-01T04:13:07.239Z,390.00
2023-05-01T04:14:07.045Z,391.00
2023-05-01T04:15:07.072Z,391.00
2023-05-01T04:16:07.146Z,391.00
2023-05-01T04:17:07.112Z,389.00
2023-05-01T04:18:07.154Z,388.00
2023-05-01T04:19:07.152Z,387.00
2023-05-01T04:20:07.145Z,388.00
2023-05-01T04:21:07.172Z,389.00
2023-05-01T04:22:07.186Z,387.00
2023-05-01T04:23:07.232Z,386.00
2023-05-01T04:24:07.246Z,386.00
2023-05-01T04:25:07.254Z,386.00
2023-05-01T04:26:07.292Z,387.00
2023-05-01T04:27:07.327Z,389.00
2023-05-01T04:28:07.364Z,389.00
2023-05-01T04:29:07.394Z,390.00
2023-05-01T04:30:07.503Z,389.00
2023-05-01T04:31:07.550Z,389.00
2023-05-01T04:32:07.586Z,391.00
2023-05-01T04:33:07.593Z,392.00
2023-05-01T04:34:07.561Z,393.00
2023-05-01T04:35:07.584Z,393.00
2023-05-01T04:36:07.640Z,396.00
2023-05-01T04:37:07.668Z,398.00
2023-05-01T04:38:07.690Z,400.00
2023-05-01T04:39:07.734Z,399.00
2023-05-01T04:40:11.202Z,398.00
2023-05-01T04:41:07.763Z,397.00
2023-05-01T04:42:07.761Z,397.00
2023-05-01T04:43:07.771Z,401.00
2023-05-01T04:44:07.765Z,403.00
2023-05-01T04:45:07.755Z,404.00
2023-05-01T04:46:07.794Z,407.00
2023-05-01T04:47:07.789Z,411.00
2023-05-01T04:48:07.794Z,411.00
2023-05-01T04:49:07.723Z,413.00
2023-05-01T04:50:07.735Z,413.00
2023-05-01T04:51:07.726Z,411.00
2023-05-01T04:52:07.718Z,412.00
2023-05-01T04:53:07.716Z,411.00
2023-05-01T04:54:07.707Z,411.00
2023-05-01T04:55:07.702Z,411.00
2023-05-01T04:56:07.686Z,412.00
2023-05-01T04:57:07.689Z,412.00
2023-05-01T04:58:07.675Z,412.00
2023-05-01T04:59:07.662Z,410.00
2023-05-01T05:00:07.678Z,406.00
2023-05-01T05:01:07.718Z,407.00
2023-05-01T05:02:07.725Z,409.00
2023-05-01T05:03:07.776Z,412.00
2023-05-01T05:04:07.796Z,412.00
2023-05-01T05:05:07.623Z,411.00
2023-05-01T05:06:07.652Z,411.00
2023-05-01T05:07:07.624Z,412.00
2023-05-01T05:08:07.609Z,410.00
2023-05-01T05:09:07.624Z,413.00
2023-05-01T05:10:07.588Z,412.00
2023-05-01T05:11:07.600Z,412.00
2023-05-01T05:12:07.610Z,413.00
2023-05-01T05:13:07.599Z,415.00
2023-05-01T05:14:07.564Z,413.00
2023-05-01T05:15:07.582Z,413.00
2023-05-01T05:16:07.573Z,412.00
2023-05-01T05:17:07.557Z,411.00
2023-05-01T05:18:07.707Z,412.00
2023-05-01T05:19:07.531Z,413.00
2023-05-01T05:20:07.539Z,415.00
2023-05-01T05:21:07.529Z,414.00
2023-05-01T05:22:07.535Z,415.00
2023-05-01T05:23:08.507Z,414.00
2023-05-01T05:24:07.503Z,413.00
2023-05-01T05:25:07.509Z,413.00
2023-05-01T05:26:07.500Z,414.00
2023-05-01T05:27:07.492Z,413.00
2023-05-01T05:28:07.475Z,413.00
2023-05-01T05:29:07.471Z,416.00
2023-05-01T05:30:07.463Z,416.00
2023-05-01T05:31:07.460Z,416.00
2023-05-01T05:32:07.534Z,414.00
2023-05-01T05:33:07.507Z,414.00
2023-05-01T05:34:07.451Z,413.00
2023-05-01T05:35:07.440Z,412.00
2023-05-01T05:36:07.479Z,411.00
2023-05-01T05:37:07.473Z,410.00
2023-05-01T05:38:07.496Z,411.00
2023-05-01T05:39:07.521Z,413.00
2023-05-01T05:40:07.536Z,413.00
2023-05-01T05:41:07.556Z,412.00
2023-05-01T05:42:07.568Z,411.00
2023-05-01T05:43:07.623Z,412.00
2023-05-01T05:44:07.632Z,410.00
2023-05-01T05:45:07.633Z,409.00
2023-05-01T05:46:07.677Z,409.00
2023-05-01T05:47:07.650Z,408.00
2023-05-01T05:48:07.747Z,408.00
2023-05-01T05:49:07.727Z,407.00
2023-05-01T05:50:07.740Z,406.00
2023-05-01T05:51:07.774Z,405.00
2023-05-01T05:52:07.771Z,406.00
2023-05-01T05:53:07.814Z,406.00
2023-05-01T05:54:07.831Z,404.00
2023-05-01T05:55:07.854Z,404.00
2023-05-01T05:56:07.885Z,405.00
2023-05-01T05:57:07.921Z,403.00
2023-05-01T05:58:07.967Z,405.00
2023-05-01T05:59:08.019Z,403.00
2023-05-01T06:00:08.064Z,402.00
2023-05-01T06:01:08.072Z,404.00
2023-05-01T06:02:08.230Z,404.00
2023-05-01T06:03:08.249Z,406.00
2023-05-01T06:04:08.158Z,404.00
2023-05-01T06:05:08.249Z,405.00
2023-05-01T06:06:08.450Z,405.00
2023-05-01T06:07:08.286Z,404.00
2023-05-01T06:08:08.325Z,404.00
2023-05-01T06:09:08.398Z,404.00
2023-05-01T06:10:08.464Z,404.00
2023-05-01T06:11:08.526Z,403.00
2023-05-01T06:12:08.558Z,402.00
2023-05-01T06:13:13.652Z,404.00
2023-05-01T06:14:09.613Z,406.00
2023-05-01T06:15:08.603Z,407.00
2023-05-01T06:16:08.672Z,404.00
2023-05-01T06:17:08.579Z,405.00
2023-05-01T06:18:08.852Z,401.00
2023-05-01T06:19:08.570Z,402.00
2023-05-01T06:20:08.559Z,402.00
2023-05-01T06:21:08.539Z,401.00
2023-05-01T06:22:08.544Z,399.00
2023-05-01T06:23:08.558Z,397.00
2023-05-01T06:24:08.540Z,399.00
2023-05-01T06:25:08.523Z,399.00
2023-05-01T06:26:08.535Z,400.00
2023-05-01T06:27:09.011Z,401.00
2023-05-01T06:28:08.509Z,400.00
2023-05-01T06:29:08.571Z,401.00
2023-05-01T06:30:08.607Z,401.00
2023-05-01T06:31:08.735Z,399.00
2023-05-01T06:32:08.729Z,398.00
2023-05-01T06:33:08.833Z,398.00
2023-05-01T06:34:08.876Z,398.00
2023-05-01T06:35:08.939Z,398.00
2023-05-01T06:36:08.988Z,397.00
2023-05-01T06:37:09.052Z,400.00
2023-05-01T06:38:09.114Z,399.00
2023-05-01T06:39:09.178Z,398.00
2023-05-01T06:40:09.220Z,399.00
2023-05-01T06:41:09.337Z,399.00
2023-05-01T06:42:09.365Z,400.00
2023-05-01T06:43:09.415Z,398.00
2023-05-01T06:44:09.480Z,396.00
2023-05-01T06:45:09.540Z,396.00
2023-05-01T06:46:09.618Z,394.00
2023-05-01T06:47:09.707Z,391.00
2023-05-01T06:48:09.764Z,391.00
2023-05-01T06:49:09.759Z,392.00
2023-05-01T06:50:09.813Z,393.00
2023-05-01T06:51:09.862Z,393.00
2023-05-01T06:52:09.921Z,392.00
2023-05-01T06:53:10.008Z,396.00
2023-05-01T06:54:10.063Z,398.00
2023-05-01T06:55:10.057Z,397.00
2023-05-01T06:56:10.101Z,400.00
2023-05-01T06:57:10.126Z,397.00
2023-05-01T06:58:22.814Z,394.00
2023-05-01T06:59:11.150Z,394.00
2023-05-01T07:00:10.123Z,396.00
2023-05-01T07:01:10.142Z,399.00
2023-05-01T07:02:10.145Z,398.00
2023-05-01T07:03:10.144Z,397.00
2023-05-01T07:04:10.110Z,398.00
2023-05-01T07:05:10.096Z,397.00
2023-05-01T07:06:10.190Z,396.00
2023-05-01T07:07:10.090Z,394.00
2023-05-01T07:08:10.084Z,395.00
2023-05-01T07:09:10.063Z,395.00
2023-05-01T07:10:10.078Z,395.00
2023-05-01T07:11:10.119Z,397.00
2023-05-01T07:12:10.193Z,398.00
2023-05-01T07:13:10.272Z,398.00
2023-05-01T07:14:10.328Z,399.00
2023-05-01T07:15:10.384Z,397.00
2023-05-01T07:16:10.454Z,397.00
2023-05-01T07:17:10.494Z,394.00
2023-05-01T07:18:10.634Z,393.00
2023-05-01T07:19:10.629Z,392.00
2023-05-01T07:20:10.705Z,393.00
2023-05-01T07:21:10.708Z,393.00
2023-05-01T07:22:10.753Z,393.00
2023-05-01T07:23:10.829Z,392.00
2023-05-01T07:24:10.865Z,390.00
2023-05-01T07:25:10.918Z,390.00
2023-05-01T07:26:10.984Z,390.00
2023-05-01T07:27:11.058Z,394.00
2023-05-01T07:28:11.094Z,395.00
2023-05-01T07:29:11.144Z,394.00
2023-05-01T07:30:11.232Z,393.00
2023-05-01T07:31:11.282Z,392.00
2023-05-01T07:32:11.534Z,393.00
2023-05-01T07:33:11.531Z,392.00
2023-05-01T07:34:11.474Z,391.00
2023-05-01T07:35:11.513Z,391.00
2023-05-01T07:36:11.583Z,393.00
2023-05-01T07:37:11.634Z,395.00
2023-05-01T07:38:11.671Z,396.00
2023-05-01T07:39:11.752Z,394.00
2023-05-01T07:40:11.833Z,393.00
2023-05-01T07:41:11.856Z,392.00
2023-05-01T07:42:11.935Z,392.00
2023-05-01T07:43:11.975Z,390.00
2023-05-01T07:44:12.027Z,391.00
2023-05-01T07:45:12.110Z,391.00
2023-05-01T07:46:12.202Z,391.00
2023-05-01T07:47:12.213Z,389.00
2023-05-01T07:48:12.348Z,390.00
2023-05-01T07:49:12.340Z,390.00
2023-05-01T07:50:12.403Z,392.00
2023-05-01T07:51:12.454Z,390.00
2023-05-01T07:52:12.526Z,390.00
2023-05-01T07:53:12.580Z,389.00
2023-05-01T07:54:12.634Z,389.00
2023-05-01T07:55:12.699Z,388.00
2023-05-01T07:56:12.743Z,390.00
2023-05-01T07:57:12.812Z,391.00
2023-05-01T07:58:12.873Z,392.00
2023-05-01T07:59:12.906Z,391.00
2023-05-01T08:00:12.965Z,391.00
2023-05-01T08:01:13.042Z,390.00
2023-05-01T08:02:13.085Z,393.00
2023-05-01T08:03:13.327Z,393.00
2023-05-01T08:04:13.309Z,393.00
2023-05-01T08:05:13.261Z,393.00
2023-05-01T08:06:13.357Z,392.00
2023-05-01T08:07:13.351Z,391.00
2023-05-01T08:08:13.411Z,392.00
2023-05-01T08:09:13.452Z,395.00
2023-05-01T08:10:13.508Z,395.00
2023-05-01T08:11:13.540Z,394.00
2023-05-01T08:12:13.616Z,394.00
2023-05-01T08:13:13.653Z,392.00
2023-05-01T08:14:13.687Z,388.00
2023-05-01T08:15:13.735Z,386.00
2023-05-01T08:16:13.808Z,387.00
2023-05-01T08:17:13.837Z,388.00
2023-05-01T08:18:13.909Z,388.00
2023-05-01T08:19:13.917Z,387.00
2023-05-01T08:20:13.968Z,387.00
2023-05-01T08:21:14.018Z,387.00
2023-05-01T08:22:14.062Z,387.00
2023-05-01T08:23:14.111Z,387.00
2023-05-01T08:24:14.124Z,386.00
2023-05-01T08:25:14.185Z,386.00
2023-05-01T08:26:14.230Z,386.00
2023-05-01T08:27:14.276Z,387.00
2023-05-01T08:28:14.296Z,387.00
2023-05-01T08:29:14.357Z,389.00
2023-05-01T08:30:14.432Z,387.00
2023-05-01T08:31:14.483Z,388.00
2023-05-01T08:32:14.497Z,388.00
2023-05-01T08:33:14.579Z,387.00
2023-05-01T08:34:14.569Z,387.00
2023-05-01T08:35:14.588Z,387.00
2023-05-01T08:36:14.636Z,388.00
2023-05-01T08:37:14.677Z,390.00
2023-05-01T08:38:14.722Z,389.00
2023-05-01T08:39:14.739Z,388.00
2023-05-01T08:40:14.760Z,385.00
2023-05-01T08:41:14.795Z,384.00
2023-05-01T08:42:14.874Z,383.00
2023-05-01T08:43:14.857Z,384.00
2023-05-01T08:44:14.884Z,383.00
2023-05-01T08:45:14.930Z,382.00
2023-05-01T08:46:14.972Z,378.00
2023-05-01T08:47:15.064Z,377.00
2023-05-01T08:48:15.025Z,377.00
2023-05-01T08:49:15.031Z,377.00
2023-05-01T08:50:15.088Z,377.00
2023-05-01T08:51:15.083Z,380.00
2023-05-01T08:52:15.155Z,380.00
2023-05-01T08:53:15.141Z,383.00
2023-05-01T08:54:15.169Z,384.00
2023-05-01T08:55:15.201Z,382.00
2023-05-01T08:56:15.216Z,381.00
2023-05-01T08:57:15.242Z,382.00
2023-05-01T08:58:15.275Z,382.00
2023-05-01T08:59:15.291Z,381.00
2023-05-01T09:00:15.323Z,380.00
2023-05-01T09:01:15.378Z,379.00
2023-05-01T09:02:15.409Z,377.00
2023-05-01T09:03:15.498Z,375.00
2023-05-01T09:04:15.497Z,374.00
2023-05-01T09:05:15.444Z,374.00
2023-05-01T09:06:15.474Z,375.00
2023-05-01T09:07:15.503Z,376.00
2023-05-01T09:08:15.509Z,375.00
2023-05-01T09:09:15.533Z,373.00
2023-05-01T09:10:15.556Z,373.00
2023-05-01T09:11:15.578Z,372.00
2023-05-01T09:12:15.601Z,373.00
2023-05-01T09:13:15.638Z,372.00
2023-05-01T09:14:15.649Z,371.00
2023-05-01T09:15:15.674Z,371.00
2023-05-01T09:16:15.757Z,370.00
2023-05-01T09:17:15.694Z,370.00
2023-05-01T09:18:15.764Z,369.00
2023-05-01T09:19:15.745Z,369.00
2023-05-01T09:20:15.739Z,372.00
2023-05-01T09:21:15.783Z,372.00
2023-05-01T09:22:15.780Z,373.00
2023-05-01T09:23:15.822Z,374.00
2023-05-01T09:24:15.830Z,375.00
2023-05-01T09:25:15.846Z,377.00
2023-05-01T09:26:15.853Z,376.00
2023-05-01T09:27:15.857Z,376.00
2023-05-01T09:28:15.878Z,375.00
2023-05-01T09:29:15.900Z,375.00
2023-05-01T09:30:15.900Z,374.00
2023-05-01T09:31:15.932Z,374.00
2023-05-01T09:32:15.993Z,375.00
2023-05-01T09:33:16.004Z,375.00
2023-05-01T09:34:15.952Z,373.00
2023-05-01T09:35:15.974Z,373.00
2023-05-01T09:36:15.988Z,373.00
2023-05-01T09:37:16.006Z,373.00
2023-05-01T09:38:16.018Z,371.00
2023-05-01T09:39:16.038Z,372.00
2023-05-01T09:40:16.040Z,371.00
2023-05-01T09:41:16.033Z,371.00
2023-05-01T09:42:16.050Z,373.00
2023-05-01T09:43:16.072Z,374.00
2023-05-01T09:44:16.061Z,374.00
2023-05-01T09:45:16.111Z,372.00
2023-05-01T09:46:16.117Z,372.00
2023-05-01T09:47:16.103Z,371.00
2023-05-01T09:48:16.111Z,369.00
2023-05-01T09:49:16.128Z,367.00
2023-05-01T09:50:16.308Z,368.00
2023-05-01T09:51:16.148Z,367.00
2023-05-01T09:52:16.154Z,367.00
2023-05-01T09:53:16.151Z,368.00
2023-05-01T09:54:16.168Z,368.00
2023-05-01T09:55:16.174Z,368.00
2023-05-01T09:56:16.172Z,369.00
2023-05-01T09:57:16.188Z,369.00
2023-05-01T09:58:16.185Z,368.00
2023-05-01T09:59:16.185Z,369.00
2023-05-01T10:00:16.180Z,369.00
2023-05-01T10:01:16.246Z,367.00
2023-05-01T10:02:16.213Z,369.00
2023-05-01T10:03:16.342Z,369.00
2023-05-01T10:04:16.222Z,369.00
2023-05-01T10:05:16.220Z,368.00
2023-05-01T10:06:16.227Z,367.00
2023-05-01T10:07:16.225Z,369.00
2023-05-01T10:08:16.215Z,367.00
2023-05-01T10:09:16.192Z,365.00
2023-05-01T10:10:16.202Z,364.00
2023-05-01T10:11:16.200Z,363.00
2023-05-01T10:12:16.188Z,361.00
2023-05-01T10:13:16.198Z,360.00
2023-05-01T10:14:16.230Z,361.00
2023-05-01T10:15:24.808Z,361.00
2023-05-01T10:16:17.233Z,363.00
2023-05-01T10:17:16.280Z,364.00
2023-05-01T10:18:16.230Z,365.00
2023-05-01T10:19:16.167Z,363.00
2023-05-01T10:20:16.232Z,363.00
2023-05-01T10:21:16.171Z,364.00
2023-05-01T10:22:16.175Z,364.00
2023-05-01T10:23:16.163Z,367.00
2023-05-01T10:24:16.158Z,367.00
2023-05-01T10:25:16.144Z,368.00
2023-05-01T10:26:16.129Z,366.00
2023-05-01T10:27:16.113Z,367.00
2023-05-01T10:28:16.127Z,366.00
2023-05-01T10:29:16.127Z,364.00
2023-05-01T10:30:16.132Z,362.00
2023-05-01T10:31:16.155Z,364.00
2023-05-01T10:32:16.090Z,362.00
2023-05-01T10:33:16.165Z,361.00
2023-05-01T10:34:16.081Z,358.00
2023-05-01T10:35:16.101Z,358.00
2023-05-01T10:36:16.071Z,355.00
2023-05-01T10:37:16.069Z,356.00
2023-05-01T10:38:16.050Z,355.00
2023-05-01T10:39:16.057Z,358.00
2023-05-01T10:40:16.131Z,358.00
2023-05-01T10:41:16.035Z,359.00
2023-05-01T10:42:16.031Z,357.00
2023-05-01T10:43:16.100Z,356.00
2023-05-01T10:44:16.025Z,353.00
2023-05-01T10:45:16.007Z,354.00
2023-05-01T10:46:16.024Z,356.00
2023-05-01T10:47:16.005Z,357.00
2023-05-01T10:48:16.005Z,355.00
2023-05-01T10:49:15.990Z,353.00
2023-05-01T10:50:16.220Z,352.00
2023-05-01T10:51:15.982Z,352.00
2023-05-01T10:52:15.969Z,354.00
2023-05-01T10:53:15.986Z,353.00
2023-05-01T10:54:15.948Z,355.00
2023-05-01T10:55:15.951Z,357.00
2023-05-01T10:56:15.955Z,359.00
2023-05-01T10:57:15.943Z,361.00
2023-05-01T10:58:15.929Z,361.00
2023-05-01T10:59:15.939Z,361.00
2023-05-01T11:00:15.939Z,360.00
2023-05-01T11:01:15.924Z,359.00
2023-05-01T11:02:16.013Z,357.00
2023-05-01T11:03:16.083Z,356.00
2023-05-01T11:04:15.892Z,355.00
2023-05-01T11:05:18.442Z,355.00
2023-05-01T11:06:16.950Z,356.00
2023-05-01T11:07:16.136Z,358.00
2023-05-01T11:08:15.870Z,361.00
2023-05-01T11:09:15.874Z,362.00
2023-05-01T11:10:15.855Z,362.00
2023-05-01T11:11:15.864Z,362.00
2023-05-01T11:12:15.853Z,361.00
2023-05-01T11:13:15.852Z,359.00
2023-05-01T11:14:15.838Z,359.00
2023-05-01T11:15:15.822Z,357.00
2023-05-01T11:16:15.860Z,359.00
2023-05-01T11:17:15.842Z,360.00
2023-05-01T11:18:15.852Z,361.00
2023-05-01T11:19:15.816Z,363.00
2023-05-01T11:20:15.798Z,363.00
2023-05-01T11:21:15.816Z,361.00
2023-05-01T11:22:15.805Z,361.00
2023-05-01T11:23:15.803Z,360.00
2023-05-01T11:24:15.796Z,360.00
2023-05-01T11:25:15.775Z,360.00
2023-05-01T11:26:15.767Z,360.00
2023-05-01T11:27:15.759Z,359.00
2023-05-01T11:28:15.745Z,359.00
2023-05-01T11:29:15.754Z,359.00
2023-05-01T11:30:15.755Z,360.00
2023-05-01T11:31:15.754Z,362.00
2023-05-01T11:32:15.835Z,362.00
2023-05-01T11:33:15.764Z,363.00
2023-05-01T11:34:15.701Z,364.00
2023-05-01T11:35:15.706Z,364.00
2023-05-01T11:36:15.688Z,363.00
2023-05-01T11:37:15.685Z,364.00
2023-05-01T11:38:15.700Z,364.00
2023-05-01T11:39:15.667Z,363.00
2023-05-01T11:40:15.658Z,363.00
2023-05-01T11:41:15.652Z,364.00
2023-05-01T11:42:15.786Z,366.00
2023-05-01T11:43:15.664Z,366.00
2023-05-01T11:44:15.643Z,367.00
2023-05-01T11:45:15.643Z,367.00
2023-05-01T11:46:15.701Z,368.00
2023-05-01T11:47:15.625Z,369.00
2023-05-01T11:48:15.641Z,366.00
2023-05-01T11:49:15.619Z,368.00
2023-05-01T11:50:15.614Z,367.00
2023-05-01T11:51:15.607Z,366.00
2023-05-01T11:52:15.603Z,366.00
2023-05-01T11:53:15.696Z,367.00
2023-05-01T11:54:15.941Z,369.00
2023-05-01T11:55:15.623Z,366.00
2023-05-01T11:56:25.412Z,366.00
2023-05-01T11:57:16.621Z,365.00
2023-05-01T11:58:15.602Z,365.00
2023-05-01T11:59:15.589Z,365.00
2023-05-01T12:00:15.583Z,363.00
2023-05-01T12:01:15.607Z,363.00
2023-05-01T12:02:15.614Z,362.00
2023-05-01T12:03:15.865Z,363.00
2023-05-01T12:04:15.669Z,360.00
2023-05-01T12:05:15.595Z,360.00
2023-05-01T12:06:15.584Z,361.00
2023-05-01T12:07:15.539Z,361.00
2023-05-01T12:08:15.533Z,362.00
2023-05-01T12:09:15.534Z,361.00
2023-05-01T12:10:15.518Z,360.00
2023-05-01T12:11:15.523Z,362.00
2023-05-01T12:12:15.519Z,359.00
2023-05-01T12:13:15.531Z,359.00
2023-05-01T12:14:15.516Z,361.00
2023-05-01T12:15:15.499Z,361.00
2023-05-01T12:16:15.481Z,361.00
2023-05-01T12:17:15.522Z,358.00
2023-05-01T12:18:15.605Z,356.00
2023-05-01T12:19:15.457Z,356.00
2023-05-01T12:20:15.477Z,356.00
2023-05-01T12:21:15.451Z,357.00
2023-05-01T12:22:15.458Z,358.00
2023-05-01T12:23:15.464Z,360.00
2023-05-01T12:24:15.473Z,360.00
2023-05-01T12:25:15.437Z,360.00
2023-05-01T12:26:15.421Z,359.00
2023-05-01T12:27:15.409Z,358.00
2023-05-01T12:28:15.416Z,356.00